ADDS METAR Data INFO
IDs: Format: Raw Decoded Include TAF

Data at: 2102 UTC 19 Jul 2018

KJNX 192055Z AUTO 00000KT 10SM CLR 31/12 A3002 RMK AO2
KJNX 192035Z AUTO 03004KT 10SM CLR 32/12 A3002 RMK AO2
KJNX 192015Z AUTO 05007KT 10SM CLR 31/12 A3003 RMK AO2
KJNX 191950Z AUTO 05008KT 10SM CLR 31/12 A3004 RMK AO2
KJNX 191935Z AUTO 10003KT 10SM CLR 31/11 A3004 RMK AO2
KJNX 191915Z AUTO 13003KT 10SM 32/12 A3005 RMK AO2 PWINO